<?xml version="1.0" encoding="UTF-8" standalone="no" ?>
<gpx xmlns="http://www.topografix.com/GPX/1/1" xmlns:xsi="http://www.w3.org/2001/XMLSchema-instance" xsi:schemaLocation="http://www.topografix.com/GPX/1/1 http://www.topografix.com/GPX/1/1/gpx.xsd" version="1.1" creator="VisuGPX - https://www.visugpx.com">
  <metadata>
    <name>devesset</name>
  </metadata>
  <trk>
    <name><![CDATA[devesset_1]]></name>
    <trkseg>
      <trkpt lat="45.05339" lon="4.39504">
        <ele>1099</ele>
        <time>2019-09-09T16:46:57Z</time>
      </trkpt>
      <trkpt lat="45.05338" lon="4.39521">
        <ele>1099</ele>
        <time>2019-09-09T16:46:41Z</time>
      </trkpt>
      <trkpt lat="45.0533" lon="4.39525">
        <ele>1099</ele>
        <time>2019-09-09T16:46:30Z</time>
      </trkpt>
      <trkpt lat="45.05325" lon="4.39522">
        <ele>1098</ele>
        <time>2019-09-09T16:46:22Z</time>
      </trkpt>
      <trkpt lat="45.05319" lon="4.39512">
        <ele>1098</ele>
        <time>2019-09-09T16:46:10Z</time>
      </trkpt>
      <trkpt lat="45.05316" lon="4.395">
        <ele>1097</ele>
        <time>2019-09-09T16:45:58Z</time>
      </trkpt>
      <trkpt lat="45.05301" lon="4.39484">
        <ele>1096</ele>
        <time>2019-09-09T16:45:33Z</time>
      </trkpt>
      <trkpt lat="45.05289" lon="4.39462">
        <ele>1095</ele>
        <time>2019-09-09T16:45:07Z</time>
      </trkpt>
      <trkpt lat="45.05283" lon="4.39456">
        <ele>1094</ele>
        <time>2019-09-09T16:44:57Z</time>
      </trkpt>
      <trkpt lat="45.05277" lon="4.39454">
        <ele>1094</ele>
        <time>2019-09-09T16:44:49Z</time>
      </trkpt>
      <trkpt lat="45.05246" lon="4.39483">
        <ele>1091</ele>
        <time>2019-09-09T16:43:59Z</time>
      </trkpt>
      <trkpt lat="45.05238" lon="4.39496">
        <ele>1090</ele>
        <time>2019-09-09T16:43:43Z</time>
      </trkpt>
      <trkpt lat="45.05222" lon="4.39502">
        <ele>1088</ele>
        <time>2019-09-09T16:43:21Z</time>
      </trkpt>
      <trkpt lat="45.05203" lon="4.39515">
        <ele>1086</ele>
        <time>2019-09-09T16:42:53Z</time>
      </trkpt>
      <trkpt lat="45.05187" lon="4.39518">
        <ele>1084</ele>
        <time>2019-09-09T16:42:31Z</time>
      </trkpt>
      <trkpt lat="45.05175" lon="4.39523">
        <ele>1083</ele>
        <time>2019-09-09T16:42:14Z</time>
      </trkpt>
      <trkpt lat="45.05157" lon="4.39535">
        <ele>1081</ele>
        <time>2019-09-09T16:41:48Z</time>
      </trkpt>
      <trkpt lat="45.05134" lon="4.39558">
        <ele>1079</ele>
        <time>2019-09-09T16:41:10Z</time>
      </trkpt>
      <trkpt lat="45.05118" lon="4.39584">
        <ele>1078</ele>
        <time>2019-09-09T16:40:38Z</time>
      </trkpt>
      <trkpt lat="45.05108" lon="4.3959">
        <ele>1077</ele>
        <time>2019-09-09T16:40:23Z</time>
      </trkpt>
      <trkpt lat="45.0505" lon="4.39646">
        <ele>1079</ele>
        <time>2019-09-09T16:38:49Z</time>
      </trkpt>
      <trkpt lat="45.05026" lon="4.39661">
        <ele>1080</ele>
        <time>2019-09-09T16:38:14Z</time>
      </trkpt>
      <trkpt lat="45.05005" lon="4.3968">
        <ele>1080</ele>
        <time>2019-09-09T16:37:41Z</time>
      </trkpt>
      <trkpt lat="45.04994" lon="4.39685">
        <ele>1081</ele>
        <time>2019-09-09T16:37:26Z</time>
      </trkpt>
      <trkpt lat="45.04984" lon="4.39685">
        <ele>1082</ele>
        <time>2019-09-09T16:37:12Z</time>
      </trkpt>
      <trkpt lat="45.04966" lon="4.39677">
        <ele>1083</ele>
        <time>2019-09-09T16:36:47Z</time>
      </trkpt>
      <trkpt lat="45.04951" lon="4.39661">
        <ele>1084</ele>
        <time>2019-09-09T16:36:22Z</time>
      </trkpt>
      <trkpt lat="45.04946" lon="4.3965">
        <ele>1085</ele>
        <time>2019-09-09T16:36:10Z</time>
      </trkpt>
      <trkpt lat="45.04945" lon="4.3959">
        <ele>1084</ele>
        <time>2019-09-09T16:35:13Z</time>
      </trkpt>
      <trkpt lat="45.04949" lon="4.39554">
        <ele>1083</ele>
        <time>2019-09-09T16:34:39Z</time>
      </trkpt>
      <trkpt lat="45.0495" lon="4.39503">
        <ele>1083</ele>
        <time>2019-09-09T16:33:51Z</time>
      </trkpt>
      <trkpt lat="45.04939" lon="4.39445">
        <ele>1081</ele>
        <time>2019-09-09T16:32:54Z</time>
      </trkpt>
      <trkpt lat="45.0494" lon="4.39435">
        <ele>1081</ele>
        <time>2019-09-09T16:32:45Z</time>
      </trkpt>
      <trkpt lat="45.04937" lon="4.39429">
        <ele>1081</ele>
        <time>2019-09-09T16:32:38Z</time>
      </trkpt>
      <trkpt lat="45.04933" lon="4.39429">
        <ele>1081</ele>
        <time>2019-09-09T16:32:32Z</time>
      </trkpt>
      <trkpt lat="45.04925" lon="4.39423">
        <ele>1082</ele>
        <time>2019-09-09T16:32:20Z</time>
      </trkpt>
      <trkpt lat="45.04912" lon="4.3942">
        <ele>1082</ele>
        <time>2019-09-09T16:32:03Z</time>
      </trkpt>
      <trkpt lat="45.04896" lon="4.39412">
        <ele>1082</ele>
        <time>2019-09-09T16:31:40Z</time>
      </trkpt>
      <trkpt lat="45.04886" lon="4.39412">
        <ele>1082</ele>
        <time>2019-09-09T16:31:27Z</time>
      </trkpt>
      <trkpt lat="45.04868" lon="4.39422">
        <ele>1084</ele>
        <time>2019-09-09T16:31:01Z</time>
      </trkpt>
      <trkpt lat="45.04861" lon="4.3942">
        <ele>1084</ele>
        <time>2019-09-09T16:30:51Z</time>
      </trkpt>
      <trkpt lat="45.04843" lon="4.39421">
        <ele>1084</ele>
        <time>2019-09-09T16:30:27Z</time>
      </trkpt>
      <trkpt lat="45.04842" lon="4.39429">
        <ele>1085</ele>
        <time>2019-09-09T16:30:20Z</time>
      </trkpt>
      <trkpt lat="45.04848" lon="4.39446">
        <ele>1087</ele>
        <time>2019-09-09T16:30:02Z</time>
      </trkpt>
      <trkpt lat="45.04846" lon="4.39467">
        <ele>1089</ele>
        <time>2019-09-09T16:29:42Z</time>
      </trkpt>
      <trkpt lat="45.04847" lon="4.39494">
        <ele>1092</ele>
        <time>2019-09-09T16:29:16Z</time>
      </trkpt>
      <trkpt lat="45.04837" lon="4.39517">
        <ele>1094</ele>
        <time>2019-09-09T16:28:51Z</time>
      </trkpt>
      <trkpt lat="45.04835" lon="4.3953">
        <ele>1095</ele>
        <time>2019-09-09T16:28:38Z</time>
      </trkpt>
      <trkpt lat="45.04843" lon="4.396">
        <ele>1097</ele>
        <time>2019-09-09T16:27:31Z</time>
      </trkpt>
      <trkpt lat="45.0484" lon="4.39614">
        <ele>1098</ele>
        <time>2019-09-09T16:27:18Z</time>
      </trkpt>
      <trkpt lat="45.04831" lon="4.39634">
        <ele>1099</ele>
        <time>2019-09-09T16:26:55Z</time>
      </trkpt>
      <trkpt lat="45.04826" lon="4.39664">
        <ele>1099</ele>
        <time>2019-09-09T16:26:26Z</time>
      </trkpt>
      <trkpt lat="45.04814" lon="4.39694">
        <ele>1101</ele>
        <time>2019-09-09T16:25:54Z</time>
      </trkpt>
      <trkpt lat="45.04809" lon="4.39718">
        <ele>1102</ele>
        <time>2019-09-09T16:25:30Z</time>
      </trkpt>
      <trkpt lat="45.04802" lon="4.3973">
        <ele>1103</ele>
        <time>2019-09-09T16:25:15Z</time>
      </trkpt>
      <trkpt lat="45.04799" lon="4.39747">
        <ele>1103</ele>
        <time>2019-09-09T16:24:59Z</time>
      </trkpt>
      <trkpt lat="45.04778" lon="4.39784">
        <ele>1104</ele>
        <time>2019-09-09T16:24:14Z</time>
      </trkpt>
      <trkpt lat="45.04775" lon="4.39801">
        <ele>1104</ele>
        <time>2019-09-09T16:23:58Z</time>
      </trkpt>
      <trkpt lat="45.04765" lon="4.39816">
        <ele>1105</ele>
        <time>2019-09-09T16:23:38Z</time>
      </trkpt>
      <trkpt lat="45.0475" lon="4.39847">
        <ele>1106</ele>
        <time>2019-09-09T16:23:03Z</time>
      </trkpt>
      <trkpt lat="45.0474" lon="4.3986">
        <ele>1105</ele>
        <time>2019-09-09T16:22:45Z</time>
      </trkpt>
      <trkpt lat="45.04733" lon="4.39876">
        <ele>1105</ele>
        <time>2019-09-09T16:22:27Z</time>
      </trkpt>
      <trkpt lat="45.04721" lon="4.39891">
        <ele>1105</ele>
        <time>2019-09-09T16:22:06Z</time>
      </trkpt>
      <trkpt lat="45.04715" lon="4.39904">
        <ele>1105</ele>
        <time>2019-09-09T16:21:51Z</time>
      </trkpt>
      <trkpt lat="45.04707" lon="4.39912">
        <ele>1105</ele>
        <time>2019-09-09T16:21:38Z</time>
      </trkpt>
      <trkpt lat="45.04697" lon="4.39928">
        <ele>1104</ele>
        <time>2019-09-09T16:21:18Z</time>
      </trkpt>
      <trkpt lat="45.04681" lon="4.39944">
        <ele>1104</ele>
        <time>2019-09-09T16:20:52Z</time>
      </trkpt>
      <trkpt lat="45.04668" lon="4.39971">
        <ele>1103</ele>
        <time>2019-09-09T16:20:21Z</time>
      </trkpt>
      <trkpt lat="45.04644" lon="4.40006">
        <ele>1100</ele>
        <time>2019-09-09T16:19:35Z</time>
      </trkpt>
      <trkpt lat="45.04629" lon="4.40046">
        <ele>1098</ele>
        <time>2019-09-09T16:18:52Z</time>
      </trkpt>
      <trkpt lat="45.04614" lon="4.40064">
        <ele>1098</ele>
        <time>2019-09-09T16:18:26Z</time>
      </trkpt>
      <trkpt lat="45.04583" lon="4.40116">
        <ele>1098</ele>
        <time>2019-09-09T16:17:22Z</time>
      </trkpt>
      <trkpt lat="45.04571" lon="4.40132">
        <ele>1097</ele>
        <time>2019-09-09T16:17:00Z</time>
      </trkpt>
      <trkpt lat="45.0456" lon="4.40157">
        <ele>1097</ele>
        <time>2019-09-09T16:16:32Z</time>
      </trkpt>
      <trkpt lat="45.04546" lon="4.4018">
        <ele>1098</ele>
        <time>2019-09-09T16:16:03Z</time>
      </trkpt>
      <trkpt lat="45.04538" lon="4.40216">
        <ele>1099</ele>
        <time>2019-09-09T16:15:28Z</time>
      </trkpt>
      <trkpt lat="45.04522" lon="4.40244">
        <ele>1101</ele>
        <time>2019-09-09T16:14:54Z</time>
      </trkpt>
      <trkpt lat="45.04508" lon="4.40297">
        <ele>1103</ele>
        <time>2019-09-09T16:14:00Z</time>
      </trkpt>
      <trkpt lat="45.04498" lon="4.40308">
        <ele>1104</ele>
        <time>2019-09-09T16:13:44Z</time>
      </trkpt>
      <trkpt lat="45.04471" lon="4.40352">
        <ele>1104</ele>
        <time>2019-09-09T16:12:49Z</time>
      </trkpt>
      <trkpt lat="45.04459" lon="4.40382">
        <ele>1104</ele>
        <time>2019-09-09T16:12:16Z</time>
      </trkpt>
      <trkpt lat="45.04433" lon="4.40474">
        <ele>1106</ele>
        <time>2019-09-09T16:10:43Z</time>
      </trkpt>
      <trkpt lat="45.04414" lon="4.40518">
        <ele>1107</ele>
        <time>2019-09-09T16:09:54Z</time>
      </trkpt>
      <trkpt lat="45.04409" lon="4.40536">
        <ele>1106</ele>
        <time>2019-09-09T16:09:36Z</time>
      </trkpt>
      <trkpt lat="45.04396" lon="4.40557">
        <ele>1105</ele>
        <time>2019-09-09T16:09:09Z</time>
      </trkpt>
      <trkpt lat="45.04385" lon="4.40588">
        <ele>1103</ele>
        <time>2019-09-09T16:08:37Z</time>
      </trkpt>
      <trkpt lat="45.04379" lon="4.40593">
        <ele>1102</ele>
        <time>2019-09-09T16:08:27Z</time>
      </trkpt>
      <trkpt lat="45.04373" lon="4.40594">
        <ele>1102</ele>
        <time>2019-09-09T16:08:19Z</time>
      </trkpt>
      <trkpt lat="45.04349" lon="4.40578">
        <ele>1102</ele>
        <time>2019-09-09T16:07:44Z</time>
      </trkpt>
      <trkpt lat="45.04323" lon="4.4058">
        <ele>1101</ele>
        <time>2019-09-09T16:07:09Z</time>
      </trkpt>
      <trkpt lat="45.04309" lon="4.40589">
        <ele>1100</ele>
        <time>2019-09-09T16:06:49Z</time>
      </trkpt>
      <trkpt lat="45.04262" lon="4.40606">
        <ele>1099</ele>
        <time>2019-09-09T16:05:44Z</time>
      </trkpt>
      <trkpt lat="45.04231" lon="4.40623">
        <ele>1098</ele>
        <time>2019-09-09T16:05:00Z</time>
      </trkpt>
      <trkpt lat="45.04172" lon="4.40644">
        <ele>1098</ele>
        <time>2019-09-09T16:03:38Z</time>
      </trkpt>
      <trkpt lat="45.04143" lon="4.40659">
        <ele>1101</ele>
        <time>2019-09-09T16:02:57Z</time>
      </trkpt>
      <trkpt lat="45.04127" lon="4.40662">
        <ele>1103</ele>
        <time>2019-09-09T16:02:36Z</time>
      </trkpt>
      <trkpt lat="45.0411" lon="4.4067">
        <ele>1105</ele>
        <time>2019-09-09T16:02:12Z</time>
      </trkpt>
      <trkpt lat="45.04083" lon="4.40673">
        <ele>1109</ele>
        <time>2019-09-09T16:01:36Z</time>
      </trkpt>
      <trkpt lat="45.04022" lon="4.40675">
        <ele>1111</ele>
        <time>2019-09-09T16:00:14Z</time>
      </trkpt>
      <trkpt lat="45.04005" lon="4.4068">
        <ele>1112</ele>
        <time>2019-09-09T15:59:51Z</time>
      </trkpt>
      <trkpt lat="45.03958" lon="4.40676">
        <ele>1113</ele>
        <time>2019-09-09T15:58:48Z</time>
      </trkpt>
      <trkpt lat="45.03938" lon="4.4068">
        <ele>1113</ele>
        <time>2019-09-09T15:58:21Z</time>
      </trkpt>
      <trkpt lat="45.03921" lon="4.40675">
        <ele>1114</ele>
        <time>2019-09-09T15:57:58Z</time>
      </trkpt>
      <trkpt lat="45.03886" lon="4.4068">
        <ele>1113</ele>
        <time>2019-09-09T15:57:11Z</time>
      </trkpt>
      <trkpt lat="45.03863" lon="4.40677">
        <ele>1113</ele>
        <time>2019-09-09T15:56:40Z</time>
      </trkpt>
      <trkpt lat="45.03833" lon="4.40677">
        <ele>1113</ele>
        <time>2019-09-09T15:56:00Z</time>
      </trkpt>
      <trkpt lat="45.03818" lon="4.40682">
        <ele>1112</ele>
        <time>2019-09-09T15:55:40Z</time>
      </trkpt>
      <trkpt lat="45.03809" lon="4.40679">
        <ele>1111</ele>
        <time>2019-09-09T15:55:27Z</time>
      </trkpt>
      <trkpt lat="45.03792" lon="4.40679">
        <ele>1110</ele>
        <time>2019-09-09T15:55:05Z</time>
      </trkpt>
      <trkpt lat="45.0378" lon="4.40676">
        <ele>1110</ele>
        <time>2019-09-09T15:54:48Z</time>
      </trkpt>
      <trkpt lat="45.03764" lon="4.40668">
        <ele>1110</ele>
        <time>2019-09-09T15:54:26Z</time>
      </trkpt>
      <trkpt lat="45.03752" lon="4.40665">
        <ele>1109</ele>
        <time>2019-09-09T15:54:10Z</time>
      </trkpt>
      <trkpt lat="45.03741" lon="4.40666">
        <ele>1109</ele>
        <time>2019-09-09T15:53:55Z</time>
      </trkpt>
      <trkpt lat="45.03726" lon="4.40663">
        <ele>1108</ele>
        <time>2019-09-09T15:53:35Z</time>
      </trkpt>
      <trkpt lat="45.03709" lon="4.40663">
        <ele>1108</ele>
        <time>2019-09-09T15:53:12Z</time>
      </trkpt>
      <trkpt lat="45.03692" lon="4.40669">
        <ele>1107</ele>
        <time>2019-09-09T15:52:49Z</time>
      </trkpt>
      <trkpt lat="45.03672" lon="4.40662">
        <ele>1106</ele>
        <time>2019-09-09T15:52:21Z</time>
      </trkpt>
      <trkpt lat="45.03655" lon="4.40653">
        <ele>1105</ele>
        <time>2019-09-09T15:51:57Z</time>
      </trkpt>
      <trkpt lat="45.03647" lon="4.40651">
        <ele>1105</ele>
        <time>2019-09-09T15:51:46Z</time>
      </trkpt>
      <trkpt lat="45.0364" lon="4.40653">
        <ele>1105</ele>
        <time>2019-09-09T15:51:36Z</time>
      </trkpt>
      <trkpt lat="45.0362" lon="4.40649">
        <ele>1104</ele>
        <time>2019-09-09T15:51:10Z</time>
      </trkpt>
      <trkpt lat="45.03601" lon="4.40644">
        <ele>1103</ele>
        <time>2019-09-09T15:50:44Z</time>
      </trkpt>
      <trkpt lat="45.03586" lon="4.40637">
        <ele>1103</ele>
        <time>2019-09-09T15:50:23Z</time>
      </trkpt>
      <trkpt lat="45.03521" lon="4.40633">
        <ele>1102</ele>
        <time>2019-09-09T15:48:56Z</time>
      </trkpt>
      <trkpt lat="45.03493" lon="4.4064">
        <ele>1101</ele>
        <time>2019-09-09T15:48:18Z</time>
      </trkpt>
      <trkpt lat="45.0348" lon="4.40639">
        <ele>1101</ele>
        <time>2019-09-09T15:48:01Z</time>
      </trkpt>
      <trkpt lat="45.03465" lon="4.40643">
        <ele>1100</ele>
        <time>2019-09-09T15:47:40Z</time>
      </trkpt>
      <trkpt lat="45.03445" lon="4.40643">
        <ele>1100</ele>
        <time>2019-09-09T15:47:13Z</time>
      </trkpt>
      <trkpt lat="45.03439" lon="4.40645">
        <ele>1100</ele>
        <time>2019-09-09T15:47:05Z</time>
      </trkpt>
      <trkpt lat="45.03415" lon="4.40643">
        <ele>1099</ele>
        <time>2019-09-09T15:46:33Z</time>
      </trkpt>
      <trkpt lat="45.03408" lon="4.40646">
        <ele>1098</ele>
        <time>2019-09-09T15:46:23Z</time>
      </trkpt>
      <trkpt lat="45.03399" lon="4.40645">
        <ele>1097</ele>
        <time>2019-09-09T15:46:11Z</time>
      </trkpt>
      <trkpt lat="45.03383" lon="4.40653">
        <ele>1095</ele>
        <time>2019-09-09T15:45:49Z</time>
      </trkpt>
      <trkpt lat="45.03367" lon="4.40649">
        <ele>1094</ele>
        <time>2019-09-09T15:45:27Z</time>
      </trkpt>
      <trkpt lat="45.03349" lon="4.40651">
        <ele>1092</ele>
        <time>2019-09-09T15:45:03Z</time>
      </trkpt>
      <trkpt lat="45.03338" lon="4.40648">
        <ele>1091</ele>
        <time>2019-09-09T15:44:48Z</time>
      </trkpt>
      <trkpt lat="45.03324" lon="4.40648">
        <ele>1090</ele>
        <time>2019-09-09T15:44:29Z</time>
      </trkpt>
      <trkpt lat="45.03307" lon="4.40657">
        <ele>1088</ele>
        <time>2019-09-09T15:44:05Z</time>
      </trkpt>
      <trkpt lat="45.03237" lon="4.40659">
        <ele>1085</ele>
        <time>2019-09-09T15:42:32Z</time>
      </trkpt>
      <trkpt lat="45.03195" lon="4.40666">
        <ele>1082</ele>
        <time>2019-09-09T15:41:35Z</time>
      </trkpt>
      <trkpt lat="45.03168" lon="4.40666">
        <ele>1080</ele>
        <time>2019-09-09T15:40:59Z</time>
      </trkpt>
      <trkpt lat="45.03135" lon="4.40673">
        <ele>1078</ele>
        <time>2019-09-09T15:40:15Z</time>
      </trkpt>
      <trkpt lat="45.03119" lon="4.40672">
        <ele>1077</ele>
        <time>2019-09-09T15:39:53Z</time>
      </trkpt>
      <trkpt lat="45.03102" lon="4.40675">
        <ele>1075</ele>
        <time>2019-09-09T15:39:30Z</time>
      </trkpt>
      <trkpt lat="45.03092" lon="4.40675">
        <ele>1075</ele>
        <time>2019-09-09T15:39:17Z</time>
      </trkpt>
      <trkpt lat="45.0308" lon="4.40667">
        <ele>1074</ele>
        <time>2019-09-09T15:38:59Z</time>
      </trkpt>
      <trkpt lat="45.03064" lon="4.40661">
        <ele>1073</ele>
        <time>2019-09-09T15:38:37Z</time>
      </trkpt>
      <trkpt lat="45.03038" lon="4.40663">
        <ele>1072</ele>
        <time>2019-09-09T15:38:03Z</time>
      </trkpt>
      <trkpt lat="45.03016" lon="4.40658">
        <ele>1071</ele>
        <time>2019-09-09T15:37:33Z</time>
      </trkpt>
      <trkpt lat="45.02976" lon="4.40634">
        <ele>1069</ele>
        <time>2019-09-09T15:36:35Z</time>
      </trkpt>
      <trkpt lat="45.02959" lon="4.40627">
        <ele>1069</ele>
        <time>2019-09-09T15:36:11Z</time>
      </trkpt>
      <trkpt lat="45.0287" lon="4.40565">
        <ele>1064</ele>
        <time>2019-09-09T15:33:59Z</time>
      </trkpt>
      <trkpt lat="45.02846" lon="4.40542">
        <ele>1062</ele>
        <time>2019-09-09T15:33:20Z</time>
      </trkpt>
      <trkpt lat="45.02814" lon="4.4052">
        <ele>1061</ele>
        <time>2019-09-09T15:32:33Z</time>
      </trkpt>
      <trkpt lat="45.02794" lon="4.40501">
        <ele>1060</ele>
        <time>2019-09-09T15:32:01Z</time>
      </trkpt>
      <trkpt lat="45.02757" lon="4.40476">
        <ele>1061</ele>
        <time>2019-09-09T15:31:06Z</time>
      </trkpt>
      <trkpt lat="45.0273" lon="4.40454">
        <ele>1061</ele>
        <time>2019-09-09T15:30:24Z</time>
      </trkpt>
      <trkpt lat="45.02697" lon="4.40434">
        <ele>1061</ele>
        <time>2019-09-09T15:29:36Z</time>
      </trkpt>
      <trkpt lat="45.02687" lon="4.40422">
        <ele>1061</ele>
        <time>2019-09-09T15:29:19Z</time>
      </trkpt>
      <trkpt lat="45.02663" lon="4.40406">
        <ele>1061</ele>
        <time>2019-09-09T15:28:43Z</time>
      </trkpt>
      <trkpt lat="45.02652" lon="4.4039">
        <ele>1062</ele>
        <time>2019-09-09T15:28:22Z</time>
      </trkpt>
      <trkpt lat="45.02633" lon="4.40375">
        <ele>1061</ele>
        <time>2019-09-09T15:27:53Z</time>
      </trkpt>
      <trkpt lat="45.02608" lon="4.40361">
        <ele>1061</ele>
        <time>2019-09-09T15:27:17Z</time>
      </trkpt>
      <trkpt lat="45.02595" lon="4.40348">
        <ele>1061</ele>
        <time>2019-09-09T15:26:56Z</time>
      </trkpt>
      <trkpt lat="45.02549" lon="4.40314">
        <ele>1062</ele>
        <time>2019-09-09T15:25:47Z</time>
      </trkpt>
      <trkpt lat="45.02536" lon="4.40312">
        <ele>1063</ele>
        <time>2019-09-09T15:25:29Z</time>
      </trkpt>
      <trkpt lat="45.02519" lon="4.403">
        <ele>1063</ele>
        <time>2019-09-09T15:25:04Z</time>
      </trkpt>
      <trkpt lat="45.02507" lon="4.40282">
        <ele>1064</ele>
        <time>2019-09-09T15:24:41Z</time>
      </trkpt>
      <trkpt lat="45.02482" lon="4.40271">
        <ele>1065</ele>
        <time>2019-09-09T15:24:06Z</time>
      </trkpt>
      <trkpt lat="45.02458" lon="4.40251">
        <ele>1066</ele>
        <time>2019-09-09T15:23:29Z</time>
      </trkpt>
      <trkpt lat="45.02445" lon="4.40237">
        <ele>1066</ele>
        <time>2019-09-09T15:23:07Z</time>
      </trkpt>
      <trkpt lat="45.02372" lon="4.40188">
        <ele>1060</ele>
        <time>2019-09-09T15:21:19Z</time>
      </trkpt>
      <trkpt lat="45.02344" lon="4.40163">
        <ele>1058</ele>
        <time>2019-09-09T15:20:35Z</time>
      </trkpt>
      <trkpt lat="45.02341" lon="4.40156">
        <ele>1058</ele>
        <time>2019-09-09T15:20:27Z</time>
      </trkpt>
      <trkpt lat="45.02323" lon="4.40141">
        <ele>1055</ele>
        <time>2019-09-09T15:19:59Z</time>
      </trkpt>
      <trkpt lat="45.02316" lon="4.40131">
        <ele>1054</ele>
        <time>2019-09-09T15:19:46Z</time>
      </trkpt>
      <trkpt lat="45.02302" lon="4.4012">
        <ele>1051</ele>
        <time>2019-09-09T15:19:25Z</time>
      </trkpt>
      <trkpt lat="45.02298" lon="4.40119">
        <ele>1051</ele>
        <time>2019-09-09T15:19:19Z</time>
      </trkpt>
      <trkpt lat="45.02295" lon="4.40121">
        <ele>1050</ele>
        <time>2019-09-09T15:19:15Z</time>
      </trkpt>
      <trkpt lat="45.02286" lon="4.40135">
        <ele>1049</ele>
        <time>2019-09-09T15:18:57Z</time>
      </trkpt>
      <trkpt lat="45.02275" lon="4.40215">
        <ele>1048</ele>
        <time>2019-09-09T15:17:40Z</time>
      </trkpt>
      <trkpt lat="45.02257" lon="4.40262">
        <ele>1045</ele>
        <time>2019-09-09T15:16:50Z</time>
      </trkpt>
      <trkpt lat="45.02247" lon="4.40271">
        <ele>1044</ele>
        <time>2019-09-09T15:16:34Z</time>
      </trkpt>
      <trkpt lat="45.02237" lon="4.40274">
        <ele>1044</ele>
        <time>2019-09-09T15:16:20Z</time>
      </trkpt>
      <trkpt lat="45.0222" lon="4.4027">
        <ele>1044</ele>
        <time>2019-09-09T15:15:57Z</time>
      </trkpt>
      <trkpt lat="45.02205" lon="4.40259">
        <ele>1045</ele>
        <time>2019-09-09T15:15:35Z</time>
      </trkpt>
      <trkpt lat="45.02199" lon="4.40254">
        <ele>1045</ele>
        <time>2019-09-09T15:15:25Z</time>
      </trkpt>
      <trkpt lat="45.02189" lon="4.40239">
        <ele>1045</ele>
        <time>2019-09-09T15:15:06Z</time>
      </trkpt>
      <trkpt lat="45.02186" lon="4.40199">
        <ele>1045</ele>
        <time>2019-09-09T15:14:28Z</time>
      </trkpt>
      <trkpt lat="45.02179" lon="4.40176">
        <ele>1045</ele>
        <time>2019-09-09T15:14:04Z</time>
      </trkpt>
      <trkpt lat="45.02177" lon="4.40158">
        <ele>1044</ele>
        <time>2019-09-09T15:13:47Z</time>
      </trkpt>
      <trkpt lat="45.02172" lon="4.40151">
        <ele>1044</ele>
        <time>2019-09-09T15:13:38Z</time>
      </trkpt>
      <trkpt lat="45.02162" lon="4.40146">
        <ele>1044</ele>
        <time>2019-09-09T15:13:24Z</time>
      </trkpt>
      <trkpt lat="45.02127" lon="4.40154">
        <ele>1053</ele>
        <time>2019-09-09T15:12:36Z</time>
      </trkpt>
      <trkpt lat="45.02118" lon="4.40154">
        <ele>1055</ele>
        <time>2019-09-09T15:12:24Z</time>
      </trkpt>
      <trkpt lat="45.02107" lon="4.40144">
        <ele>1057</ele>
        <time>2019-09-09T15:12:07Z</time>
      </trkpt>
      <trkpt lat="45.02094" lon="4.40137">
        <ele>1059</ele>
        <time>2019-09-09T15:11:48Z</time>
      </trkpt>
      <trkpt lat="45.02075" lon="4.40117">
        <ele>1063</ele>
        <time>2019-09-09T15:11:17Z</time>
      </trkpt>
      <trkpt lat="45.02073" lon="4.40107">
        <ele>1063</ele>
        <time>2019-09-09T15:11:07Z</time>
      </trkpt>
      <trkpt lat="45.02055" lon="4.40063">
        <ele>1065</ele>
        <time>2019-09-09T15:10:19Z</time>
      </trkpt>
      <trkpt lat="45.0205" lon="4.40059">
        <ele>1067</ele>
        <time>2019-09-09T15:10:11Z</time>
      </trkpt>
      <trkpt lat="45.02038" lon="4.40009">
        <ele>1066</ele>
        <time>2019-09-09T15:09:21Z</time>
      </trkpt>
      <trkpt lat="45.02031" lon="4.39994">
        <ele>1067</ele>
        <time>2019-09-09T15:09:05Z</time>
      </trkpt>
      <trkpt lat="45.02026" lon="4.39972">
        <ele>1067</ele>
        <time>2019-09-09T15:08:43Z</time>
      </trkpt>
      <trkpt lat="45.02017" lon="4.39955">
        <ele>1068</ele>
        <time>2019-09-09T15:08:23Z</time>
      </trkpt>
      <trkpt lat="45.0201" lon="4.39925">
        <ele>1067</ele>
        <time>2019-09-09T15:07:53Z</time>
      </trkpt>
      <trkpt lat="45.01984" lon="4.39878">
        <ele>1069</ele>
        <time>2019-09-09T15:06:57Z</time>
      </trkpt>
      <trkpt lat="45.01968" lon="4.39831">
        <ele>1067</ele>
        <time>2019-09-09T15:06:07Z</time>
      </trkpt>
      <trkpt lat="45.01961" lon="4.39821">
        <ele>1068</ele>
        <time>2019-09-09T15:05:54Z</time>
      </trkpt>
      <trkpt lat="45.01949" lon="4.39812">
        <ele>1069</ele>
        <time>2019-09-09T15:05:36Z</time>
      </trkpt>
      <trkpt lat="45.01909" lon="4.39803">
        <ele>1073</ele>
        <time>2019-09-09T15:04:42Z</time>
      </trkpt>
      <trkpt lat="45.01882" lon="4.39804">
        <ele>1073</ele>
        <time>2019-09-09T15:04:06Z</time>
      </trkpt>
      <trkpt lat="45.01843" lon="4.39823">
        <ele>1075</ele>
        <time>2019-09-09T15:03:11Z</time>
      </trkpt>
      <trkpt lat="45.01809" lon="4.3985">
        <ele>1076</ele>
        <time>2019-09-09T15:02:19Z</time>
      </trkpt>
      <trkpt lat="45.01799" lon="4.39853">
        <ele>1075</ele>
        <time>2019-09-09T15:02:05Z</time>
      </trkpt>
      <trkpt lat="45.01787" lon="4.39853">
        <ele>1074</ele>
        <time>2019-09-09T15:01:49Z</time>
      </trkpt>
      <trkpt lat="45.01775" lon="4.3985">
        <ele>1073</ele>
        <time>2019-09-09T15:01:33Z</time>
      </trkpt>
      <trkpt lat="45.01757" lon="4.3985">
        <ele>1071</ele>
        <time>2019-09-09T15:01:09Z</time>
      </trkpt>
      <trkpt lat="45.01734" lon="4.39857">
        <ele>1072</ele>
        <time>2019-09-09T15:00:37Z</time>
      </trkpt>
      <trkpt lat="45.01717" lon="4.39865">
        <ele>1073</ele>
        <time>2019-09-09T15:00:14Z</time>
      </trkpt>
      <trkpt lat="45.01685" lon="4.39874">
        <ele>1075</ele>
        <time>2019-09-09T14:59:30Z</time>
      </trkpt>
      <trkpt lat="45.01672" lon="4.39868">
        <ele>1076</ele>
        <time>2019-09-09T14:59:12Z</time>
      </trkpt>
      <trkpt lat="45.01662" lon="4.39869">
        <ele>1077</ele>
        <time>2019-09-09T14:58:58Z</time>
      </trkpt>
      <trkpt lat="45.0165" lon="4.39864">
        <ele>1078</ele>
        <time>2019-09-09T14:58:42Z</time>
      </trkpt>
      <trkpt lat="45.01634" lon="4.39848">
        <ele>1080</ele>
        <time>2019-09-09T14:58:16Z</time>
      </trkpt>
      <trkpt lat="45.01592" lon="4.39828">
        <ele>1083</ele>
        <time>2019-09-09T14:57:16Z</time>
      </trkpt>
      <trkpt lat="45.0156" lon="4.39808">
        <ele>1083</ele>
        <time>2019-09-09T14:56:30Z</time>
      </trkpt>
      <trkpt lat="45.01537" lon="4.39783">
        <ele>1083</ele>
        <time>2019-09-09T14:55:51Z</time>
      </trkpt>
      <trkpt lat="45.01513" lon="4.39737">
        <ele>1084</ele>
        <time>2019-09-09T14:54:57Z</time>
      </trkpt>
      <trkpt lat="45.01508" lon="4.39733">
        <ele>1085</ele>
        <time>2019-09-09T14:54:49Z</time>
      </trkpt>
      <trkpt lat="45.01513" lon="4.39729">
        <ele>1084</ele>
        <time>2019-09-09T14:54:42Z</time>
      </trkpt>
      <trkpt lat="45.0152" lon="4.39729">
        <ele>1084</ele>
        <time>2019-09-09T14:54:32Z</time>
      </trkpt>
      <trkpt lat="45.01545" lon="4.39735">
        <ele>1080</ele>
        <time>2019-09-09T14:53:59Z</time>
      </trkpt>
      <trkpt lat="45.01554" lon="4.3974">
        <ele>1079</ele>
        <time>2019-09-09T14:53:46Z</time>
      </trkpt>
      <trkpt lat="45.0157" lon="4.39738">
        <ele>1078</ele>
        <time>2019-09-09T14:53:24Z</time>
      </trkpt>
      <trkpt lat="45.01598" lon="4.39707">
        <ele>1077</ele>
        <time>2019-09-09T14:52:37Z</time>
      </trkpt>
      <trkpt lat="45.01615" lon="4.39682">
        <ele>1077</ele>
        <time>2019-09-09T14:52:04Z</time>
      </trkpt>
      <trkpt lat="45.01623" lon="4.39664">
        <ele>1077</ele>
        <time>2019-09-09T14:51:44Z</time>
      </trkpt>
      <trkpt lat="45.01687" lon="4.39608">
        <ele>1073</ele>
        <time>2019-09-09T14:50:04Z</time>
      </trkpt>
      <trkpt lat="45.017" lon="4.39602">
        <ele>1073</ele>
        <time>2019-09-09T14:49:45Z</time>
      </trkpt>
      <trkpt lat="45.01708" lon="4.39593">
        <ele>1073</ele>
        <time>2019-09-09T14:49:32Z</time>
      </trkpt>
      <trkpt lat="45.0172" lon="4.39585">
        <ele>1073</ele>
        <time>2019-09-09T14:49:14Z</time>
      </trkpt>
      <trkpt lat="45.01733" lon="4.39582">
        <ele>1073</ele>
        <time>2019-09-09T14:48:56Z</time>
      </trkpt>
      <trkpt lat="45.01766" lon="4.3956">
        <ele>1070</ele>
        <time>2019-09-09T14:48:08Z</time>
      </trkpt>
      <trkpt lat="45.01776" lon="4.39557">
        <ele>1069</ele>
        <time>2019-09-09T14:47:54Z</time>
      </trkpt>
      <trkpt lat="45.01796" lon="4.39561">
        <ele>1068</ele>
        <time>2019-09-09T14:47:27Z</time>
      </trkpt>
      <trkpt lat="45.0182" lon="4.39554">
        <ele>1065</ele>
        <time>2019-09-09T14:46:54Z</time>
      </trkpt>
      <trkpt lat="45.01833" lon="4.3953">
        <ele>1063</ele>
        <time>2019-09-09T14:46:26Z</time>
      </trkpt>
      <trkpt lat="45.01845" lon="4.39519">
        <ele>1061</ele>
        <time>2019-09-09T14:46:07Z</time>
      </trkpt>
      <trkpt lat="45.01863" lon="4.39511">
        <ele>1059</ele>
        <time>2019-09-09T14:45:42Z</time>
      </trkpt>
      <trkpt lat="45.01876" lon="4.395">
        <ele>1057</ele>
        <time>2019-09-09T14:45:21Z</time>
      </trkpt>
      <trkpt lat="45.01907" lon="4.39489">
        <ele>1052</ele>
        <time>2019-09-09T14:44:39Z</time>
      </trkpt>
      <trkpt lat="45.01913" lon="4.39485">
        <ele>1051</ele>
        <time>2019-09-09T14:44:30Z</time>
      </trkpt>
      <trkpt lat="45.01912" lon="4.39481">
        <ele>1050</ele>
        <time>2019-09-09T14:44:26Z</time>
      </trkpt>
      <trkpt lat="45.01927" lon="4.3948">
        <ele>1047</ele>
        <time>2019-09-09T14:44:06Z</time>
      </trkpt>
      <trkpt lat="45.01935" lon="4.39468">
        <ele>1044</ele>
        <time>2019-09-09T14:43:50Z</time>
      </trkpt>
      <trkpt lat="45.01941" lon="4.39467">
        <ele>1043</ele>
        <time>2019-09-09T14:43:42Z</time>
      </trkpt>
      <trkpt lat="45.01974" lon="4.39478">
        <ele>1037</ele>
        <time>2019-09-09T14:42:57Z</time>
      </trkpt>
      <trkpt lat="45.01981" lon="4.39484">
        <ele>1036</ele>
        <time>2019-09-09T14:42:46Z</time>
      </trkpt>
      <trkpt lat="45.01985" lon="4.39478">
        <ele>1035</ele>
        <time>2019-09-09T14:42:38Z</time>
      </trkpt>
      <trkpt lat="45.01984" lon="4.3947">
        <ele>1034</ele>
        <time>2019-09-09T14:42:31Z</time>
      </trkpt>
      <trkpt lat="45.01987" lon="4.3947">
        <ele>1033</ele>
        <time>2019-09-09T14:42:27Z</time>
      </trkpt>
      <trkpt lat="45.01996" lon="4.39481">
        <ele>1033</ele>
        <time>2019-09-09T14:42:11Z</time>
      </trkpt>
      <trkpt lat="45.0201" lon="4.39488">
        <ele>1031</ele>
        <time>2019-09-09T14:41:51Z</time>
      </trkpt>
      <trkpt lat="45.02038" lon="4.39511">
        <ele>1029</ele>
        <time>2019-09-09T14:41:08Z</time>
      </trkpt>
      <trkpt lat="45.02057" lon="4.39518">
        <ele>1026</ele>
        <time>2019-09-09T14:40:42Z</time>
      </trkpt>
      <trkpt lat="45.02073" lon="4.39518">
        <ele>1023</ele>
        <time>2019-09-09T14:40:20Z</time>
      </trkpt>
      <trkpt lat="45.02093" lon="4.39516">
        <ele>1022</ele>
        <time>2019-09-09T14:39:53Z</time>
      </trkpt>
      <trkpt lat="45.02117" lon="4.39502">
        <ele>1021</ele>
        <time>2019-09-09T14:39:19Z</time>
      </trkpt>
      <trkpt lat="45.02137" lon="4.39483">
        <ele>1022</ele>
        <time>2019-09-09T14:38:47Z</time>
      </trkpt>
      <trkpt lat="45.02157" lon="4.39457">
        <ele>1024</ele>
        <time>2019-09-09T14:38:10Z</time>
      </trkpt>
      <trkpt lat="45.02197" lon="4.3945">
        <ele>1024</ele>
        <time>2019-09-09T14:37:17Z</time>
      </trkpt>
      <trkpt lat="45.02223" lon="4.39452">
        <ele>1024</ele>
        <time>2019-09-09T14:36:42Z</time>
      </trkpt>
      <trkpt lat="45.02232" lon="4.39449">
        <ele>1024</ele>
        <time>2019-09-09T14:36:30Z</time>
      </trkpt>
      <trkpt lat="45.02242" lon="4.39437">
        <ele>1025</ele>
        <time>2019-09-09T14:36:12Z</time>
      </trkpt>
      <trkpt lat="45.02244" lon="4.39416">
        <ele>1026</ele>
        <time>2019-09-09T14:35:52Z</time>
      </trkpt>
      <trkpt lat="45.02242" lon="4.39403">
        <ele>1027</ele>
        <time>2019-09-09T14:35:40Z</time>
      </trkpt>
      <trkpt lat="45.02249" lon="4.39387">
        <ele>1027</ele>
        <time>2019-09-09T14:35:22Z</time>
      </trkpt>
      <trkpt lat="45.02257" lon="4.39379">
        <ele>1028</ele>
        <time>2019-09-09T14:35:09Z</time>
      </trkpt>
      <trkpt lat="45.02279" lon="4.39366">
        <ele>1029</ele>
        <time>2019-09-09T14:34:37Z</time>
      </trkpt>
      <trkpt lat="45.02297" lon="4.3935">
        <ele>1030</ele>
        <time>2019-09-09T14:34:09Z</time>
      </trkpt>
      <trkpt lat="45.02314" lon="4.39323">
        <ele>1031</ele>
        <time>2019-09-09T14:33:34Z</time>
      </trkpt>
      <trkpt lat="45.02321" lon="4.39304">
        <ele>1030</ele>
        <time>2019-09-09T14:33:14Z</time>
      </trkpt>
      <trkpt lat="45.02337" lon="4.39292">
        <ele>1031</ele>
        <time>2019-09-09T14:32:50Z</time>
      </trkpt>
      <trkpt lat="45.02348" lon="4.39288">
        <ele>1031</ele>
        <time>2019-09-09T14:32:35Z</time>
      </trkpt>
      <trkpt lat="45.02377" lon="4.39288">
        <ele>1032</ele>
        <time>2019-09-09T14:31:56Z</time>
      </trkpt>
      <trkpt lat="45.02398" lon="4.39284">
        <ele>1033</ele>
        <time>2019-09-09T14:31:28Z</time>
      </trkpt>
      <trkpt lat="45.0248" lon="4.39286">
        <ele>1038</ele>
        <time>2019-09-09T14:29:38Z</time>
      </trkpt>
      <trkpt lat="45.02533" lon="4.39274">
        <ele>1042</ele>
        <time>2019-09-09T14:28:27Z</time>
      </trkpt>
      <trkpt lat="45.02558" lon="4.39259">
        <ele>1044</ele>
        <time>2019-09-09T14:27:51Z</time>
      </trkpt>
      <trkpt lat="45.02599" lon="4.39224">
        <ele>1045</ele>
        <time>2019-09-09T14:26:47Z</time>
      </trkpt>
      <trkpt lat="45.02648" lon="4.3919">
        <ele>1045</ele>
        <time>2019-09-09T14:25:34Z</time>
      </trkpt>
      <trkpt lat="45.02689" lon="4.39173">
        <ele>1046</ele>
        <time>2019-09-09T14:24:37Z</time>
      </trkpt>
      <trkpt lat="45.02719" lon="4.3917">
        <ele>1047</ele>
        <time>2019-09-09T14:23:57Z</time>
      </trkpt>
      <trkpt lat="45.02746" lon="4.39161">
        <ele>1049</ele>
        <time>2019-09-09T14:23:20Z</time>
      </trkpt>
      <trkpt lat="45.02755" lon="4.39153">
        <ele>1049</ele>
        <time>2019-09-09T14:23:06Z</time>
      </trkpt>
      <trkpt lat="45.02774" lon="4.39142">
        <ele>1048</ele>
        <time>2019-09-09T14:22:38Z</time>
      </trkpt>
      <trkpt lat="45.02789" lon="4.39126">
        <ele>1048</ele>
        <time>2019-09-09T14:22:13Z</time>
      </trkpt>
      <trkpt lat="45.02825" lon="4.39099">
        <ele>1048</ele>
        <time>2019-09-09T14:21:19Z</time>
      </trkpt>
      <trkpt lat="45.02844" lon="4.39088">
        <ele>1049</ele>
        <time>2019-09-09T14:20:51Z</time>
      </trkpt>
      <trkpt lat="45.02852" lon="4.39087">
        <ele>1049</ele>
        <time>2019-09-09T14:20:41Z</time>
      </trkpt>
      <trkpt lat="45.02883" lon="4.39067">
        <ele>1052</ele>
        <time>2019-09-09T14:19:55Z</time>
      </trkpt>
      <trkpt lat="45.02893" lon="4.39055">
        <ele>1053</ele>
        <time>2019-09-09T14:19:38Z</time>
      </trkpt>
      <trkpt lat="45.02903" lon="4.39037">
        <ele>1053</ele>
        <time>2019-09-09T14:19:16Z</time>
      </trkpt>
      <trkpt lat="45.02914" lon="4.39026">
        <ele>1053</ele>
        <time>2019-09-09T14:18:58Z</time>
      </trkpt>
      <trkpt lat="45.02927" lon="4.39019">
        <ele>1054</ele>
        <time>2019-09-09T14:18:39Z</time>
      </trkpt>
      <trkpt lat="45.02928" lon="4.39016">
        <ele>1054</ele>
        <time>2019-09-09T14:18:36Z</time>
      </trkpt>
      <trkpt lat="45.02941" lon="4.39015">
        <ele>1055</ele>
        <time>2019-09-09T14:18:19Z</time>
      </trkpt>
      <trkpt lat="45.02977" lon="4.38992">
        <ele>1057</ele>
        <time>2019-09-09T14:17:26Z</time>
      </trkpt>
      <trkpt lat="45.02989" lon="4.38989">
        <ele>1058</ele>
        <time>2019-09-09T14:17:10Z</time>
      </trkpt>
      <trkpt lat="45.03004" lon="4.38989">
        <ele>1059</ele>
        <time>2019-09-09T14:16:50Z</time>
      </trkpt>
      <trkpt lat="45.03038" lon="4.38979">
        <ele>1061</ele>
        <time>2019-09-09T14:16:04Z</time>
      </trkpt>
      <trkpt lat="45.03054" lon="4.38969">
        <ele>1062</ele>
        <time>2019-09-09T14:15:40Z</time>
      </trkpt>
      <trkpt lat="45.03085" lon="4.38955">
        <ele>1064</ele>
        <time>2019-09-09T14:14:57Z</time>
      </trkpt>
      <trkpt lat="45.03094" lon="4.38947">
        <ele>1063</ele>
        <time>2019-09-09T14:14:43Z</time>
      </trkpt>
      <trkpt lat="45.03103" lon="4.38933">
        <ele>1064</ele>
        <time>2019-09-09T14:14:25Z</time>
      </trkpt>
      <trkpt lat="45.03118" lon="4.38927">
        <ele>1063</ele>
        <time>2019-09-09T14:14:04Z</time>
      </trkpt>
      <trkpt lat="45.0313" lon="4.38928">
        <ele>1063</ele>
        <time>2019-09-09T14:13:48Z</time>
      </trkpt>
      <trkpt lat="45.0314" lon="4.38924">
        <ele>1062</ele>
        <time>2019-09-09T14:13:34Z</time>
      </trkpt>
      <trkpt lat="45.03152" lon="4.38916">
        <ele>1063</ele>
        <time>2019-09-09T14:13:16Z</time>
      </trkpt>
      <trkpt lat="45.03159" lon="4.38908">
        <ele>1063</ele>
        <time>2019-09-09T14:13:04Z</time>
      </trkpt>
      <trkpt lat="45.03166" lon="4.38906">
        <ele>1063</ele>
        <time>2019-09-09T14:12:55Z</time>
      </trkpt>
      <trkpt lat="45.03167" lon="4.38903">
        <ele>1064</ele>
        <time>2019-09-09T14:12:52Z</time>
      </trkpt>
      <trkpt lat="45.03165" lon="4.38902">
        <ele>1064</ele>
        <time>2019-09-09T14:12:49Z</time>
      </trkpt>
      <trkpt lat="45.03171" lon="4.38903">
        <ele>1063</ele>
        <time>2019-09-09T14:12:41Z</time>
      </trkpt>
      <trkpt lat="45.03172" lon="4.38897">
        <ele>1064</ele>
        <time>2019-09-09T14:12:35Z</time>
      </trkpt>
      <trkpt lat="45.03174" lon="4.38899">
        <ele>1063</ele>
        <time>2019-09-09T14:12:32Z</time>
      </trkpt>
      <trkpt lat="45.03182" lon="4.38898">
        <ele>1063</ele>
        <time>2019-09-09T14:12:21Z</time>
      </trkpt>
      <trkpt lat="45.03187" lon="4.38891">
        <ele>1063</ele>
        <time>2019-09-09T14:12:12Z</time>
      </trkpt>
      <trkpt lat="45.03199" lon="4.38889">
        <ele>1062</ele>
        <time>2019-09-09T14:11:56Z</time>
      </trkpt>
      <trkpt lat="45.03211" lon="4.38883">
        <ele>1061</ele>
        <time>2019-09-09T14:11:39Z</time>
      </trkpt>
      <trkpt lat="45.03227" lon="4.38879">
        <ele>1060</ele>
        <time>2019-09-09T14:11:17Z</time>
      </trkpt>
      <trkpt lat="45.03249" lon="4.38848">
        <ele>1062</ele>
        <time>2019-09-09T14:10:35Z</time>
      </trkpt>
      <trkpt lat="45.03262" lon="4.38824">
        <ele>1064</ele>
        <time>2019-09-09T14:10:07Z</time>
      </trkpt>
      <trkpt lat="45.03267" lon="4.38801">
        <ele>1066</ele>
        <time>2019-09-09T14:09:44Z</time>
      </trkpt>
      <trkpt lat="45.0328" lon="4.3877">
        <ele>1068</ele>
        <time>2019-09-09T14:09:10Z</time>
      </trkpt>
      <trkpt lat="45.03286" lon="4.38744">
        <ele>1070</ele>
        <time>2019-09-09T14:08:44Z</time>
      </trkpt>
      <trkpt lat="45.03297" lon="4.38723">
        <ele>1070</ele>
        <time>2019-09-09T14:08:20Z</time>
      </trkpt>
      <trkpt lat="45.033" lon="4.38686">
        <ele>1073</ele>
        <time>2019-09-09T14:07:45Z</time>
      </trkpt>
      <trkpt lat="45.03313" lon="4.38666">
        <ele>1073</ele>
        <time>2019-09-09T14:07:19Z</time>
      </trkpt>
      <trkpt lat="45.03314" lon="4.38657">
        <ele>1073</ele>
        <time>2019-09-09T14:07:10Z</time>
      </trkpt>
      <trkpt lat="45.03326" lon="4.38628">
        <ele>1075</ele>
        <time>2019-09-09T14:06:39Z</time>
      </trkpt>
      <trkpt lat="45.03337" lon="4.38621">
        <ele>1074</ele>
        <time>2019-09-09T14:06:23Z</time>
      </trkpt>
      <trkpt lat="45.03343" lon="4.38612">
        <ele>1075</ele>
        <time>2019-09-09T14:06:11Z</time>
      </trkpt>
      <trkpt lat="45.03342" lon="4.38585">
        <ele>1078</ele>
        <time>2019-09-09T14:05:46Z</time>
      </trkpt>
      <trkpt lat="45.0338" lon="4.38461">
        <ele>1080</ele>
        <time>2019-09-09T14:03:38Z</time>
      </trkpt>
      <trkpt lat="45.03379" lon="4.38416">
        <ele>1080</ele>
        <time>2019-09-09T14:02:56Z</time>
      </trkpt>
      <trkpt lat="45.03368" lon="4.38382">
        <ele>1080</ele>
        <time>2019-09-09T14:02:20Z</time>
      </trkpt>
      <trkpt lat="45.03361" lon="4.38324">
        <ele>1080</ele>
        <time>2019-09-09T14:01:25Z</time>
      </trkpt>
      <trkpt lat="45.03364" lon="4.38306">
        <ele>1080</ele>
        <time>2019-09-09T14:01:07Z</time>
      </trkpt>
      <trkpt lat="45.03384" lon="4.38238">
        <ele>1081</ele>
        <time>2019-09-09T13:59:58Z</time>
      </trkpt>
      <trkpt lat="45.03385" lon="4.38215">
        <ele>1082</ele>
        <time>2019-09-09T13:59:36Z</time>
      </trkpt>
      <trkpt lat="45.03392" lon="4.38181">
        <ele>1084</ele>
        <time>2019-09-09T13:59:03Z</time>
      </trkpt>
      <trkpt lat="45.0339" lon="4.38173">
        <ele>1084</ele>
        <time>2019-09-09T13:58:55Z</time>
      </trkpt>
      <trkpt lat="45.03398" lon="4.38136">
        <ele>1085</ele>
        <time>2019-09-09T13:58:18Z</time>
      </trkpt>
      <trkpt lat="45.03399" lon="4.38089">
        <ele>1086</ele>
        <time>2019-09-09T13:57:34Z</time>
      </trkpt>
      <trkpt lat="45.03404" lon="4.38065">
        <ele>1086</ele>
        <time>2019-09-09T13:57:10Z</time>
      </trkpt>
      <trkpt lat="45.03407" lon="4.38022">
        <ele>1086</ele>
        <time>2019-09-09T13:56:30Z</time>
      </trkpt>
      <trkpt lat="45.03414" lon="4.37851">
        <ele>1084</ele>
        <time>2019-09-09T13:53:48Z</time>
      </trkpt>
      <trkpt lat="45.0342" lon="4.37847">
        <ele>1084</ele>
        <time>2019-09-09T13:53:39Z</time>
      </trkpt>
      <trkpt lat="45.03441" lon="4.37851">
        <ele>1084</ele>
        <time>2019-09-09T13:53:11Z</time>
      </trkpt>
      <trkpt lat="45.03456" lon="4.3785">
        <ele>1084</ele>
        <time>2019-09-09T13:52:51Z</time>
      </trkpt>
      <trkpt lat="45.03462" lon="4.37854">
        <ele>1085</ele>
        <time>2019-09-09T13:52:42Z</time>
      </trkpt>
      <trkpt lat="45.0348" lon="4.37858">
        <ele>1085</ele>
        <time>2019-09-09T13:52:18Z</time>
      </trkpt>
      <trkpt lat="45.03501" lon="4.37869">
        <ele>1085</ele>
        <time>2019-09-09T13:51:48Z</time>
      </trkpt>
      <trkpt lat="45.03516" lon="4.37873">
        <ele>1083</ele>
        <time>2019-09-09T13:51:28Z</time>
      </trkpt>
      <trkpt lat="45.03545" lon="4.37874">
        <ele>1080</ele>
        <time>2019-09-09T13:50:49Z</time>
      </trkpt>
      <trkpt lat="45.03548" lon="4.37872">
        <ele>1080</ele>
        <time>2019-09-09T13:50:44Z</time>
      </trkpt>
      <trkpt lat="45.03552" lon="4.3786">
        <ele>1079</ele>
        <time>2019-09-09T13:50:32Z</time>
      </trkpt>
      <trkpt lat="45.03558" lon="4.37819">
        <ele>1078</ele>
        <time>2019-09-09T13:49:52Z</time>
      </trkpt>
      <trkpt lat="45.03583" lon="4.37737">
        <ele>1074</ele>
        <time>2019-09-09T13:48:28Z</time>
      </trkpt>
      <trkpt lat="45.03608" lon="4.37677">
        <ele>1078</ele>
        <time>2019-09-09T13:47:22Z</time>
      </trkpt>
      <trkpt lat="45.0363" lon="4.37642">
        <ele>1080</ele>
        <time>2019-09-09T13:46:38Z</time>
      </trkpt>
      <trkpt lat="45.03636" lon="4.37637">
        <ele>1080</ele>
        <time>2019-09-09T13:46:29Z</time>
      </trkpt>
      <trkpt lat="45.03664" lon="4.37627">
        <ele>1082</ele>
        <time>2019-09-09T13:45:50Z</time>
      </trkpt>
      <trkpt lat="45.03672" lon="4.37622">
        <ele>1083</ele>
        <time>2019-09-09T13:45:39Z</time>
      </trkpt>
      <trkpt lat="45.03684" lon="4.37612">
        <ele>1083</ele>
        <time>2019-09-09T13:45:20Z</time>
      </trkpt>
      <trkpt lat="45.03684" lon="4.37608">
        <ele>1084</ele>
        <time>2019-09-09T13:45:16Z</time>
      </trkpt>
      <trkpt lat="45.03688" lon="4.37605">
        <ele>1084</ele>
        <time>2019-09-09T13:45:10Z</time>
      </trkpt>
      <trkpt lat="45.037" lon="4.376">
        <ele>1085</ele>
        <time>2019-09-09T13:44:54Z</time>
      </trkpt>
      <trkpt lat="45.03722" lon="4.37596">
        <ele>1086</ele>
        <time>2019-09-09T13:44:24Z</time>
      </trkpt>
      <trkpt lat="45.03737" lon="4.37585">
        <ele>1087</ele>
        <time>2019-09-09T13:44:02Z</time>
      </trkpt>
      <trkpt lat="45.03772" lon="4.37575">
        <ele>1089</ele>
        <time>2019-09-09T13:43:14Z</time>
      </trkpt>
      <trkpt lat="45.03786" lon="4.37562">
        <ele>1090</ele>
        <time>2019-09-09T13:42:52Z</time>
      </trkpt>
      <trkpt lat="45.03804" lon="4.37553">
        <ele>1091</ele>
        <time>2019-09-09T13:42:26Z</time>
      </trkpt>
      <trkpt lat="45.03816" lon="4.37553">
        <ele>1091</ele>
        <time>2019-09-09T13:42:10Z</time>
      </trkpt>
      <trkpt lat="45.03834" lon="4.37568">
        <ele>1092</ele>
        <time>2019-09-09T13:41:42Z</time>
      </trkpt>
      <trkpt lat="45.03872" lon="4.37586">
        <ele>1094</ele>
        <time>2019-09-09T13:40:49Z</time>
      </trkpt>
      <trkpt lat="45.0388" lon="4.37585">
        <ele>1095</ele>
        <time>2019-09-09T13:40:38Z</time>
      </trkpt>
      <trkpt lat="45.03893" lon="4.3759">
        <ele>1095</ele>
        <time>2019-09-09T13:40:20Z</time>
      </trkpt>
      <trkpt lat="45.03912" lon="4.37611">
        <ele>1096</ele>
        <time>2019-09-09T13:39:48Z</time>
      </trkpt>
      <trkpt lat="45.03922" lon="4.3765">
        <ele>1096</ele>
        <time>2019-09-09T13:39:09Z</time>
      </trkpt>
      <trkpt lat="45.03937" lon="4.37687">
        <ele>1098</ele>
        <time>2019-09-09T13:38:29Z</time>
      </trkpt>
      <trkpt lat="45.03936" lon="4.37714">
        <ele>1099</ele>
        <time>2019-09-09T13:38:03Z</time>
      </trkpt>
      <trkpt lat="45.03943" lon="4.37756">
        <ele>1100</ele>
        <time>2019-09-09T13:37:22Z</time>
      </trkpt>
      <trkpt lat="45.0396" lon="4.37787">
        <ele>1104</ele>
        <time>2019-09-09T13:36:45Z</time>
      </trkpt>
      <trkpt lat="45.03998" lon="4.37878">
        <ele>1111</ele>
        <time>2019-09-09T13:35:06Z</time>
      </trkpt>
      <trkpt lat="45.04022" lon="4.37919">
        <ele>1111</ele>
        <time>2019-09-09T13:34:15Z</time>
      </trkpt>
      <trkpt lat="45.04034" lon="4.37928">
        <ele>1111</ele>
        <time>2019-09-09T13:33:57Z</time>
      </trkpt>
      <trkpt lat="45.04047" lon="4.37943">
        <ele>1111</ele>
        <time>2019-09-09T13:33:35Z</time>
      </trkpt>
      <trkpt lat="45.04059" lon="4.3797">
        <ele>1110</ele>
        <time>2019-09-09T13:33:05Z</time>
      </trkpt>
      <trkpt lat="45.04095" lon="4.38031">
        <ele>1108</ele>
        <time>2019-09-09T13:31:50Z</time>
      </trkpt>
      <trkpt lat="45.04121" lon="4.3805">
        <ele>1107</ele>
        <time>2019-09-09T13:31:11Z</time>
      </trkpt>
      <trkpt lat="45.04135" lon="4.38064">
        <ele>1106</ele>
        <time>2019-09-09T13:30:48Z</time>
      </trkpt>
      <trkpt lat="45.04179" lon="4.38122">
        <ele>1104</ele>
        <time>2019-09-09T13:29:28Z</time>
      </trkpt>
      <trkpt lat="45.0419" lon="4.38138">
        <ele>1104</ele>
        <time>2019-09-09T13:29:07Z</time>
      </trkpt>
      <trkpt lat="45.04202" lon="4.38169">
        <ele>1103</ele>
        <time>2019-09-09T13:28:33Z</time>
      </trkpt>
      <trkpt lat="45.04208" lon="4.38178">
        <ele>1103</ele>
        <time>2019-09-09T13:28:22Z</time>
      </trkpt>
      <trkpt lat="45.04232" lon="4.38184">
        <ele>1103</ele>
        <time>2019-09-09T13:27:49Z</time>
      </trkpt>
      <trkpt lat="45.04245" lon="4.38179">
        <ele>1103</ele>
        <time>2019-09-09T13:27:31Z</time>
      </trkpt>
      <trkpt lat="45.0426" lon="4.38179">
        <ele>1104</ele>
        <time>2019-09-09T13:27:11Z</time>
      </trkpt>
      <trkpt lat="45.04266" lon="4.38182">
        <ele>1103</ele>
        <time>2019-09-09T13:27:03Z</time>
      </trkpt>
      <trkpt lat="45.04275" lon="4.38178">
        <ele>1104</ele>
        <time>2019-09-09T13:26:50Z</time>
      </trkpt>
      <trkpt lat="45.04292" lon="4.38176">
        <ele>1104</ele>
        <time>2019-09-09T13:26:27Z</time>
      </trkpt>
      <trkpt lat="45.04303" lon="4.3817">
        <ele>1104</ele>
        <time>2019-09-09T13:26:12Z</time>
      </trkpt>
      <trkpt lat="45.04329" lon="4.38166">
        <ele>1104</ele>
        <time>2019-09-09T13:25:37Z</time>
      </trkpt>
      <trkpt lat="45.04359" lon="4.38166">
        <ele>1104</ele>
        <time>2019-09-09T13:24:57Z</time>
      </trkpt>
      <trkpt lat="45.04404" lon="4.38158">
        <ele>1104</ele>
        <time>2019-09-09T13:23:56Z</time>
      </trkpt>
      <trkpt lat="45.04443" lon="4.38156">
        <ele>1103</ele>
        <time>2019-09-09T13:23:04Z</time>
      </trkpt>
      <trkpt lat="45.04463" lon="4.38159">
        <ele>1103</ele>
        <time>2019-09-09T13:22:37Z</time>
      </trkpt>
      <trkpt lat="45.0447" lon="4.38156">
        <ele>1103</ele>
        <time>2019-09-09T13:22:28Z</time>
      </trkpt>
      <trkpt lat="45.04479" lon="4.38158">
        <ele>1103</ele>
        <time>2019-09-09T13:22:15Z</time>
      </trkpt>
      <trkpt lat="45.04515" lon="4.38158">
        <ele>1102</ele>
        <time>2019-09-09T13:21:27Z</time>
      </trkpt>
      <trkpt lat="45.04543" lon="4.38163">
        <ele>1102</ele>
        <time>2019-09-09T13:20:50Z</time>
      </trkpt>
      <trkpt lat="45.04562" lon="4.38169">
        <ele>1102</ele>
        <time>2019-09-09T13:20:24Z</time>
      </trkpt>
      <trkpt lat="45.04568" lon="4.38168">
        <ele>1102</ele>
        <time>2019-09-09T13:20:16Z</time>
      </trkpt>
      <trkpt lat="45.04587" lon="4.38172">
        <ele>1102</ele>
        <time>2019-09-09T13:19:50Z</time>
      </trkpt>
      <trkpt lat="45.04593" lon="4.3819">
        <ele>1103</ele>
        <time>2019-09-09T13:19:31Z</time>
      </trkpt>
      <trkpt lat="45.0459" lon="4.38213">
        <ele>1103</ele>
        <time>2019-09-09T13:19:09Z</time>
      </trkpt>
      <trkpt lat="45.04596" lon="4.38234">
        <ele>1104</ele>
        <time>2019-09-09T13:18:48Z</time>
      </trkpt>
      <trkpt lat="45.04597" lon="4.38306">
        <ele>1104</ele>
        <time>2019-09-09T13:17:40Z</time>
      </trkpt>
      <trkpt lat="45.04592" lon="4.38317">
        <ele>1103</ele>
        <time>2019-09-09T13:17:28Z</time>
      </trkpt>
      <trkpt lat="45.04584" lon="4.38323">
        <ele>1102</ele>
        <time>2019-09-09T13:17:15Z</time>
      </trkpt>
      <trkpt lat="45.04583" lon="4.38337">
        <ele>1102</ele>
        <time>2019-09-09T13:17:02Z</time>
      </trkpt>
      <trkpt lat="45.046" lon="4.38395">
        <ele>1100</ele>
        <time>2019-09-09T13:16:03Z</time>
      </trkpt>
      <trkpt lat="45.04612" lon="4.38415">
        <ele>1099</ele>
        <time>2019-09-09T13:15:38Z</time>
      </trkpt>
      <trkpt lat="45.04615" lon="4.38427">
        <ele>1099</ele>
        <time>2019-09-09T13:15:26Z</time>
      </trkpt>
      <trkpt lat="45.04623" lon="4.38437">
        <ele>1098</ele>
        <time>2019-09-09T13:15:12Z</time>
      </trkpt>
      <trkpt lat="45.04635" lon="4.38441">
        <ele>1098</ele>
        <time>2019-09-09T13:14:56Z</time>
      </trkpt>
      <trkpt lat="45.04639" lon="4.38455">
        <ele>1097</ele>
        <time>2019-09-09T13:14:41Z</time>
      </trkpt>
      <trkpt lat="45.04645" lon="4.3846">
        <ele>1096</ele>
        <time>2019-09-09T13:14:32Z</time>
      </trkpt>
      <trkpt lat="45.04664" lon="4.38466">
        <ele>1095</ele>
        <time>2019-09-09T13:14:06Z</time>
      </trkpt>
      <trkpt lat="45.04664" lon="4.38466">
        <ele>1094.9</ele>
      </trkpt>
      <trkpt lat="45.04664" lon="4.38466">
        <ele>1094.9</ele>
      </trkpt>
      <trkpt lat="45.04655" lon="4.38469">
        <ele>1094.7</ele>
      </trkpt>
      <trkpt lat="45.04657" lon="4.38557">
        <ele>1089.5</ele>
      </trkpt>
      <trkpt lat="45.04661" lon="4.38593">
        <ele>1089.3</ele>
      </trkpt>
      <trkpt lat="45.04676" lon="4.38641">
        <ele>1092.2</ele>
      </trkpt>
      <trkpt lat="45.04719" lon="4.38739">
        <ele>1094.2</ele>
      </trkpt>
      <trkpt lat="45.04727" lon="4.38768">
        <ele>1093.7</ele>
      </trkpt>
      <trkpt lat="45.0473" lon="4.38802">
        <ele>1093</ele>
      </trkpt>
      <trkpt lat="45.0473" lon="4.38806">
        <ele>1093</ele>
      </trkpt>
      <trkpt lat="45.04745" lon="4.38893">
        <ele>1087.9</ele>
      </trkpt>
      <trkpt lat="45.04749" lon="4.389">
        <ele>1087</ele>
      </trkpt>
      <trkpt lat="45.04754" lon="4.38954">
        <ele>1084.9</ele>
      </trkpt>
      <trkpt lat="45.04768" lon="4.39015">
        <ele>1082.2</ele>
      </trkpt>
      <trkpt lat="45.04761" lon="4.39055">
        <ele>1080.8</ele>
      </trkpt>
      <trkpt lat="45.04741" lon="4.39079">
        <ele>1080.7</ele>
      </trkpt>
      <trkpt lat="45.04705" lon="4.39089">
        <ele>1081.5</ele>
      </trkpt>
      <trkpt lat="45.04695" lon="4.39095">
        <ele>1081.3</ele>
      </trkpt>
      <trkpt lat="45.04684" lon="4.39154">
        <ele>1074.5</ele>
      </trkpt>
      <trkpt lat="45.04684" lon="4.39159">
        <ele>1073.9</ele>
      </trkpt>
      <trkpt lat="45.04681" lon="4.39233">
        <ele>1069.7</ele>
      </trkpt>
      <trkpt lat="45.04678" lon="4.39394">
        <ele>1078.3</ele>
      </trkpt>
      <trkpt lat="45.04696" lon="4.39394">
        <ele>1078.6</ele>
      </trkpt>
      <trkpt lat="45.04717" lon="4.39402">
        <ele>1079.8</ele>
      </trkpt>
      <trkpt lat="45.0476" lon="4.39424">
        <ele>1083.3</ele>
      </trkpt>
      <trkpt lat="45.04861" lon="4.39426">
        <ele>1085.2</ele>
      </trkpt>
      <trkpt lat="45.04889" lon="4.39415">
        <ele>1083.5</ele>
      </trkpt>
      <trkpt lat="45.04897" lon="4.39415">
        <ele>1083.3</ele>
      </trkpt>
      <trkpt lat="45.04917" lon="4.39421">
        <ele>1083.2</ele>
      </trkpt>
      <trkpt lat="45.04936" lon="4.39431">
        <ele>1081.2</ele>
      </trkpt>
      <trkpt lat="45.04941" lon="4.3945">
        <ele>1081.2</ele>
      </trkpt>
      <trkpt lat="45.04949" lon="4.39496">
        <ele>1081.5</ele>
      </trkpt>
      <trkpt lat="45.04952" lon="4.39535">
        <ele>1081.8</ele>
      </trkpt>
      <trkpt lat="45.04948" lon="4.3959">
        <ele>1083.6</ele>
      </trkpt>
      <trkpt lat="45.04947" lon="4.39595">
        <ele>1083.8</ele>
      </trkpt>
      <trkpt lat="45.04946" lon="4.39636">
        <ele>1084.4</ele>
      </trkpt>
      <trkpt lat="45.04946" lon="4.39646">
        <ele>1084.6</ele>
      </trkpt>
      <trkpt lat="45.04957" lon="4.39668">
        <ele>1083.7</ele>
      </trkpt>
      <trkpt lat="45.04985" lon="4.39687">
        <ele>1081.5</ele>
      </trkpt>
      <trkpt lat="45.05004" lon="4.39682">
        <ele>1080.1</ele>
      </trkpt>
      <trkpt lat="45.05011" lon="4.39676">
        <ele>1080</ele>
      </trkpt>
      <trkpt lat="45.05038" lon="4.39657">
        <ele>1079.8</ele>
      </trkpt>
      <trkpt lat="45.05058" lon="4.39643">
        <ele>1079.4</ele>
      </trkpt>
      <trkpt lat="45.05084" lon="4.3962">
        <ele>1078.1</ele>
      </trkpt>
      <trkpt lat="45.05094" lon="4.39609">
        <ele>1077.7</ele>
      </trkpt>
      <trkpt lat="45.05101" lon="4.39603">
        <ele>1077.7</ele>
      </trkpt>
      <trkpt lat="45.05111" lon="4.39594">
        <ele>1077.9</ele>
      </trkpt>
      <trkpt lat="45.0513" lon="4.39582">
        <ele>1078.9</ele>
      </trkpt>
      <trkpt lat="45.05143" lon="4.39576">
        <ele>1080</ele>
      </trkpt>
      <trkpt lat="45.05156" lon="4.39571">
        <ele>1081.1</ele>
      </trkpt>
      <trkpt lat="45.05164" lon="4.39565">
        <ele>1081.8</ele>
      </trkpt>
      <trkpt lat="45.052" lon="4.39524">
        <ele>1085.5</ele>
      </trkpt>
      <trkpt lat="45.05203" lon="4.39523">
        <ele>1085.8</ele>
      </trkpt>
      <trkpt lat="45.05212" lon="4.39525">
        <ele>1086.7</ele>
      </trkpt>
      <trkpt lat="45.0525" lon="4.39558">
        <ele>1090.3</ele>
      </trkpt>
      <trkpt lat="45.05284" lon="4.39597">
        <ele>1093.1</ele>
      </trkpt>
      <trkpt lat="45.05336" lon="4.39625">
        <ele>1098.7</ele>
      </trkpt>
      <trkpt lat="45.05315" lon="4.39557">
        <ele>1097.1</ele>
      </trkpt>
      <trkpt lat="45.05316" lon="4.39546">
        <ele>1097.2</ele>
      </trkpt>
      <trkpt lat="45.05323" lon="4.39536">
        <ele>1098</ele>
      </trkpt>
      <trkpt lat="45.05341" lon="4.39518">
        <ele>1099.1</ele>
      </trkpt>
      <trkpt lat="45.0537" lon="4.39492">
        <ele>1098.8</ele>
      </trkpt>
      <trkpt lat="45.05413" lon="4.39448">
        <ele>1097.8</ele>
      </trkpt>
      <trkpt lat="45.05437" lon="4.39429">
        <ele>1095.1</ele>
      </trkpt>
      <trkpt lat="45.05445" lon="4.39422">
        <ele>1094.1</ele>
      </trkpt>
      <trkpt lat="45.05454" lon="4.39393">
        <ele>1091.5</ele>
      </trkpt>
      <trkpt lat="45.05446" lon="4.39376">
        <ele>1091.4</ele>
      </trkpt>
      <trkpt lat="45.0544" lon="4.39347">
        <ele>1090</ele>
        <time>2019-09-09T16:50:46Z</time>
        <extensions>
          <visugpx:TrkExtension xmlns:visugpx="https://www.visugpx.com/editgpx/">
            <visugpx:node>1</visugpx:node>
            </visugpx:TrkExtension>
        </extensions>
      </trkpt>
      <trkpt lat="45.0542" lon="4.39353">
        <ele>1093</ele>
        <time>2019-09-09T16:50:19Z</time>
      </trkpt>
      <trkpt lat="45.05415" lon="4.39358">
        <ele>1093</ele>
        <time>2019-09-09T16:50:11Z</time>
      </trkpt>
      <trkpt lat="45.05406" lon="4.39362">
        <ele>1094</ele>
        <time>2019-09-09T16:49:58Z</time>
      </trkpt>
      <trkpt lat="45.05397" lon="4.39372">
        <ele>1094</ele>
        <time>2019-09-09T16:49:43Z</time>
      </trkpt>
      <trkpt lat="45.05388" lon="4.39393">
        <ele>1095</ele>
        <time>2019-09-09T16:49:20Z</time>
      </trkpt>
      <trkpt lat="45.05369" lon="4.39407">
        <ele>1096</ele>
        <time>2019-09-09T16:48:51Z</time>
      </trkpt>
      <trkpt lat="45.05353" lon="4.39432">
        <ele>1097</ele>
        <time>2019-09-09T16:48:19Z</time>
      </trkpt>
      <trkpt lat="45.05338" lon="4.39447">
        <ele>1098</ele>
        <time>2019-09-09T16:47:55Z</time>
      </trkpt>
      <trkpt lat="45.05334" lon="4.39455">
        <ele>1098</ele>
        <time>2019-09-09T16:47:45Z</time>
      </trkpt>
      <trkpt lat="45.05331" lon="4.39473">
        <ele>1098</ele>
        <time>2019-09-09T16:47:28Z</time>
      </trkpt>
      <trkpt lat="45.05339" lon="4.39504">
        <ele>1099</ele>
        <time>2019-09-09T16:46:57Z</time>
      </trkpt>
    </trkseg>
  </trk>
</gpx>